CheckWX is a tool to help pilots better visualize weather data.  It is not intended as a substitute for an official pre-flight weather briefing.

05:30:05 UTC

KRBL METAR
Red Bluff Municipal Airport
Red Bluff, California, USA
Current

36 mins ago

KRBL 250454Z AUTO 30005KT 10SM CLR 24/07 A2988 RMK AO2 SLP114 T02440072
Observed
May-25 @ 04:54 UTC
Wind
  • 300° at 5 KTS
Visibility
Flight Rules
VFR
Cloud Levels
  • Clear skies
Temperature
24°C / 75°F
Dewpoint
C / 45°F
Humidity
34%
Altimeter
29.88" Hg
Pressure
1011.82 hPa
Previous

2 hours ago

KRBL 250354Z AUTO 31005KT 10SM CLR 28/07 A2987 RMK AO2 SLP111 T02780067
Observed
May-25 @ 03:54 UTC
Wind
  • 310° at 5 KTS
Visibility
Flight Rules
VFR
Cloud Levels
  • Clear skies
Temperature
28°C / 82°F
Dewpoint
C / 45°F
Humidity
26%
Altimeter
29.87" Hg
Pressure
1011.52 hPa
Previous

3 hours ago

KRBL 250254Z AUTO 03005KT 10SM CLR 32/04 A2986 RMK AO2 SLP106 T03170044 56009
Observed
May-25 @ 02:54 UTC
Wind
  • 030° at 5 KTS
Visibility
Flight Rules
VFR
Cloud Levels
  • Clear skies
Temperature
32°C / 90°F
Dewpoint
C / 39°F
Humidity
17%
Altimeter
29.86" Hg
Pressure
1011.22 hPa